sensor_id;sensor_type;location;lat;lon;timestamp;temperature;humidity
19803;DHT22;66074;50.764;6.090;2024-01-25T00:00:16;10.60;99.60
19803;DHT22;66074;50.764;6.090;2024-01-25T00:02:42;10.50;99.70
19803;DHT22;66074;50.764;6.090;2024-01-25T00:05:08;10.50;99.90
19803;DHT22;66074;50.764;6.090;2024-01-25T00:07:33;10.50;99.90
19803;DHT22;66074;50.764;6.090;2024-01-25T00:09:59;10.50;99.80
19803;DHT22;66074;50.764;6.090;2024-01-25T00:12:25;10.50;99.90
19803;DHT22;66074;50.764;6.090;2024-01-25T00:14:50;10.40;99.70
19803;DHT22;66074;50.764;6.090;2024-01-25T00:17:17;10.50;99.90
19803;DHT22;66074;50.764;6.090;2024-01-25T00:19:43;10.50;99.70
19803;DHT22;66074;50.764;6.090;2024-01-25T00:22:08;10.50;99.90
19803;DHT22;66074;50.764;6.090;2024-01-25T00:24:34;10.40;99.90
19803;DHT22;66074;50.764;6.090;2024-01-25T00:27:00;10.50;99.90
19803;DHT22;66074;50.764;6.090;2024-01-25T00:29:25;10.50;99.90
19803;DHT22;66074;50.764;6.090;2024-01-25T00:31:51;10.50;99.90
19803;DHT22;66074;50.764;6.090;2024-01-25T00:34:17;10.50;99.90
19803;DHT22;66074;50.764;6.090;2024-01-25T00:36:42;10.50;99.90
19803;DHT22;66074;50.764;6.090;2024-01-25T00:39:08;10.50;99.90
19803;DHT22;66074;50.764;6.090;2024-01-25T00:41:34;10.50;99.90
19803;DHT22;66074;50.764;6.090;2024-01-25T00:44:00;10.50;99.90
19803;DHT22;66074;50.764;6.090;2024-01-25T00:46:26;10.50;99.90
19803;DHT22;66074;50.764;6.090;2024-01-25T00:48:52;10.50;99.90
19803;DHT22;66074;50.764;6.090;2024-01-25T00:51:21;10.50;99.90
19803;DHT22;66074;50.764;6.090;2024-01-25T00:53:48;10.50;99.90
19803;DHT22;66074;50.764;6.090;2024-01-25T00:56:14;10.50;99.90
19803;DHT22;66074;50.764;6.090;2024-01-25T00:58:40;10.50;99.90
19803;DHT22;66074;50.764;6.090;2024-01-25T01:01:06;10.50;99.90
19803;DHT22;66074;50.764;6.090;2024-01-25T01:03:32;10.50;99.90
19803;DHT22;66074;50.764;6.090;2024-01-25T01:05:58;10.50;99.90
19803;DHT22;66074;50.764;6.090;2024-01-25T01:08:24;10.40;99.90
19803;DHT22;66074;50.764;6.090;2024-01-25T01:10:50;10.40;99.90
19803;DHT22;66074;50.764;6.090;2024-01-25T01:13:16;10.40;99.90
19803;DHT22;66074;50.764;6.090;2024-01-25T01:15:41;10.40;99.90
19803;DHT22;66074;50.764;6.090;2024-01-25T01:18:07;10.40;99.90
19803;DHT22;66074;50.764;6.090;2024-01-25T01:20:32;10.40;99.90
19803;DHT22;66074;50.764;6.090;2024-01-25T01:22:58;10.40;99.90
19803;DHT22;66074;50.764;6.090;2024-01-25T01:25:23;10.40;99.90
19803;DHT22;66074;50.764;6.090;2024-01-25T01:27:49;10.40;99.90
19803;DHT22;66074;50.764;6.090;2024-01-25T01:30:15;10.30;99.90
19803;DHT22;66074;50.764;6.090;2024-01-25T01:32:40;10.30;99.90
19803;DHT22;66074;50.764;6.090;2024-01-25T01:35:06;10.30;99.90
19803;DHT22;66074;50.764;6.090;2024-01-25T01:37:31;10.40;99.90
19803;DHT22;66074;50.764;6.090;2024-01-25T01:39:57;10.30;99.90
19803;DHT22;66074;50.764;6.090;2024-01-25T01:42:24;10.30;99.90
19803;DHT22;66074;50.764;6.090;2024-01-25T01:44:50;10.40;99.90
19803;DHT22;66074;50.764;6.090;2024-01-25T01:47:17;10.40;99.90
19803;DHT22;66074;50.764;6.090;2024-01-25T01:49:43;10.30;99.90
19803;DHT22;66074;50.764;6.090;2024-01-25T01:52:09;10.40;99.90
19803;DHT22;66074;50.764;6.090;2024-01-25T01:54:35;10.40;99.90
19803;DHT22;66074;50.764;6.090;2024-01-25T01:57:01;10.40;99.90
19803;DHT22;66074;50.764;6.090;2024-01-25T01:59:28;10.50;99.90
19803;DHT22;66074;50.764;6.090;2024-01-25T02:01:54;10.50;99.90
19803;DHT22;66074;50.764;6.090;2024-01-25T02:04:20;10.40;99.90
19803;DHT22;66074;50.764;6.090;2024-01-25T02:06:46;10.40;99.90
19803;DHT22;66074;50.764;6.090;2024-01-25T02:09:13;10.40;99.90
19803;DHT22;66074;50.764;6.090;2024-01-25T02:11:38;10.40;99.90
19803;DHT22;66074;50.764;6.090;2024-01-25T02:14:04;10.50;99.90
19803;DHT22;66074;50.764;6.090;2024-01-25T02:16:31;10.50;99.90
19803;DHT22;66074;50.764;6.090;2024-01-25T02:18:57;10.50;99.90
19803;DHT22;66074;50.764;6.090;2024-01-25T02:21:23;10.60;99.90
19803;DHT22;66074;50.764;6.090;2024-01-25T02:23:50;10.50;99.90
19803;DHT22;66074;50.764;6.090;2024-01-25T02:26:16;10.50;99.90
19803;DHT22;66074;50.764;6.090;2024-01-25T02:28:41;10.60;99.90
19803;DHT22;66074;50.764;6.090;2024-01-25T02:31:07;10.60;99.90
19803;DHT22;66074;50.764;6.090;2024-01-25T02:33:32;10.40;99.90
19803;DHT22;66074;50.764;6.090;2024-01-25T02:35:58;10.40;99.90
19803;DHT22;66074;50.764;6.090;2024-01-25T02:38:23;10.40;99.90
19803;DHT22;66074;50.764;6.090;2024-01-25T02:40:49;10.40;99.90
19803;DHT22;66074;50.764;6.090;2024-01-25T02:43:15;10.40;99.90
19803;DHT22;66074;50.764;6.090;2024-01-25T02:45:40;10.40;99.90
19803;DHT22;66074;50.764;6.090;2024-01-25T02:48:06;10.40;99.90
19803;DHT22;66074;50.764;6.090;2024-01-25T02:50:32;10.40;99.90
19803;DHT22;66074;50.764;6.090;2024-01-25T02:52:58;10.30;99.90
19803;DHT22;66074;50.764;6.090;2024-01-25T02:55:23;10.30;99.90
19803;DHT22;66074;50.764;6.090;2024-01-25T02:57:49;10.40;99.90
19803;DHT22;66074;50.764;6.090;2024-01-25T03:00:15;10.30;99.90
19803;DHT22;66074;50.764;6.090;2024-01-25T03:02:40;10.40;99.90
19803;DHT22;66074;50.764;6.090;2024-01-25T03:05:06;10.30;99.90
19803;DHT22;66074;50.764;6.090;2024-01-25T03:07:32;10.30;99.90
19803;DHT22;66074;50.764;6.090;2024-01-25T03:09:58;10.30;99.90
19803;DHT22;66074;50.764;6.090;2024-01-25T03:12:23;10.40;99.90
19803;DHT22;66074;50.764;6.090;2024-01-25T03:14:50;10.30;99.90
19803;DHT22;66074;50.764;6.090;2024-01-25T03:17:15;10.30;99.90
19803;DHT22;66074;50.764;6.090;2024-01-25T03:19:41;10.30;99.90
19803;DHT22;66074;50.764;6.090;2024-01-25T03:22:07;10.30;99.90
19803;DHT22;66074;50.764;6.090;2024-01-25T03:24:32;10.30;99.90
19803;DHT22;66074;50.764;6.090;2024-01-25T03:26:58;10.20;99.90
19803;DHT22;66074;50.764;6.090;2024-01-25T03:29:23;10.30;99.90
19803;DHT22;66074;50.764;6.090;2024-01-25T03:31:49;10.20;99.90
19803;DHT22;66074;50.764;6.090;2024-01-25T03:34:15;10.20;99.90
19803;DHT22;66074;50.764;6.090;2024-01-25T03:36:41;10.20;99.90
19803;DHT22;66074;50.764;6.090;2024-01-25T03:39:06;10.20;99.90
19803;DHT22;66074;50.764;6.090;2024-01-25T03:41:32;10.20;99.90
19803;DHT22;66074;50.764;6.090;2024-01-25T03:43:58;10.20;99.90
19803;DHT22;66074;50.764;6.090;2024-01-25T03:46:23;10.20;99.90
19803;DHT22;66074;50.764;6.090;2024-01-25T03:48:49;10.10;99.90
19803;DHT22;66074;50.764;6.090;2024-01-25T03:51:15;10.10;99.90
19803;DHT22;66074;50.764;6.090;2024-01-25T03:53:41;10.10;99.90
19803;DHT22;66074;50.764;6.090;2024-01-25T03:56:12;10.00;99.90
19803;DHT22;66074;50.764;6.090;2024-01-25T03:58:43;10.00;99.90
19803;DHT22;66074;50.764;6.090;2024-01-25T04:01:08;10.00;99.90
19803;DHT22;66074;50.764;6.090;2024-01-25T04:03:34;9.90;99.90
19803;DHT22;66074;50.764;6.090;2024-01-25T04:06:00;9.90;99.90
19803;DHT22;66074;50.764;6.090;2024-01-25T04:08:25;9.90;99.90
19803;DHT22;66074;50.764;6.090;2024-01-25T04:10:51;9.90;99.90
19803;DHT22;66074;50.764;6.090;2024-01-25T04:13:17;9.90;99.90
19803;DHT22;66074;50.764;6.090;2024-01-25T04:15:42;9.80;99.90
19803;DHT22;66074;50.764;6.090;2024-01-25T04:18:08;9.80;99.90
19803;DHT22;66074;50.764;6.090;2024-01-25T04:20:34;9.80;99.90
19803;DHT22;66074;50.764;6.090;2024-01-25T04:22:59;9.80;99.90
19803;DHT22;66074;50.764;6.090;2024-01-25T04:25:25;9.70;99.90
19803;DHT22;66074;50.764;6.090;2024-01-25T04:27:51;9.70;99.90
19803;DHT22;66074;50.764;6.090;2024-01-25T04:30:16;9.80;99.90
19803;DHT22;66074;50.764;6.090;2024-01-25T04:32:42;9.70;99.90
19803;DHT22;66074;50.764;6.090;2024-01-25T04:35:08;9.80;99.90
19803;DHT22;66074;50.764;6.090;2024-01-25T04:37:34;9.70;99.90
19803;DHT22;66074;50.764;6.090;2024-01-25T04:40:00;9.70;99.90
19803;DHT22;66074;50.764;6.090;2024-01-25T04:42:25;9.60;99.90
19803;DHT22;66074;50.764;6.090;2024-01-25T04:44:53;9.50;99.90
19803;DHT22;66074;50.764;6.090;2024-01-25T04:47:18;9.50;99.90
19803;DHT22;66074;50.764;6.090;2024-01-25T04:49:44;9.60;99.90
19803;DHT22;66074;50.764;6.090;2024-01-25T04:52:10;9.50;99.90
19803;DHT22;66074;50.764;6.090;2024-01-25T04:54:35;9.50;99.90
19803;DHT22;66074;50.764;6.090;2024-01-25T04:57:01;9.50;99.90
19803;DHT22;66074;50.764;6.090;2024-01-25T04:59:27;9.50;99.90
19803;DHT22;66074;50.764;6.090;2024-01-25T05:01:53;9.50;99.90
19803;DHT22;66074;50.764;6.090;2024-01-25T05:04:20;9.60;99.90
19803;DHT22;66074;50.764;6.090;2024-01-25T05:06:46;9.50;99.90
19803;DHT22;66074;50.764;6.090;2024-01-25T05:09:11;9.50;99.90
19803;DHT22;66074;50.764;6.090;2024-01-25T05:11:40;9.50;99.90
19803;DHT22;66074;50.764;6.090;2024-01-25T05:14:06;9.40;99.90
19803;DHT22;66074;50.764;6.090;2024-01-25T05:16:32;9.40;99.90
19803;DHT22;66074;50.764;6.090;2024-01-25T05:18:58;9.40;99.90
19803;DHT22;66074;50.764;6.090;2024-01-25T05:21:23;9.40;99.90
19803;DHT22;66074;50.764;6.090;2024-01-25T05:23:49;9.30;99.90
19803;DHT22;66074;50.764;6.090;2024-01-25T05:26:15;9.30;99.90
19803;DHT22;66074;50.764;6.090;2024-01-25T05:28:41;9.30;99.90
19803;DHT22;66074;50.764;6.090;2024-01-25T05:31:06;9.30;99.90
19803;DHT22;66074;50.764;6.090;2024-01-25T05:33:41;9.30;99.90
19803;DHT22;66074;50.764;6.090;2024-01-25T05:36:07;9.20;99.90
19803;DHT22;66074;50.764;6.090;2024-01-25T05:38:32;9.20;99.90
19803;DHT22;66074;50.764;6.090;2024-01-25T05:40:58;9.20;99.90
19803;DHT22;66074;50.764;6.090;2024-01-25T05:43:25;9.20;99.90
19803;DHT22;66074;50.764;6.090;2024-01-25T05:45:51;9.20;99.90
19803;DHT22;66074;50.764;6.090;2024-01-25T05:48:16;9.20;99.90
19803;DHT22;66074;50.764;6.090;2024-01-25T05:50:42;9.20;99.90
19803;DHT22;66074;50.764;6.090;2024-01-25T05:53:08;9.20;99.90
19803;DHT22;66074;50.764;6.090;2024-01-25T05:55:33;9.20;99.90
19803;DHT22;66074;50.764;6.090;2024-01-25T05:57:59;9.10;99.90
19803;DHT22;66074;50.764;6.090;2024-01-25T06:00:24;9.10;99.90
19803;DHT22;66074;50.764;6.090;2024-01-25T06:02:50;9.10;99.90
19803;DHT22;66074;50.764;6.090;2024-01-25T06:05:15;9.20;99.90
19803;DHT22;66074;50.764;6.090;2024-01-25T06:07:41;9.20;99.90
19803;DHT22;66074;50.764;6.090;2024-01-25T06:10:07;9.20;99.90
19803;DHT22;66074;50.764;6.090;2024-01-25T06:12:33;9.20;99.90
19803;DHT22;66074;50.764;6.090;2024-01-25T06:14:58;9.10;99.90
19803;DHT22;66074;50.764;6.090;2024-01-25T06:17:24;9.20;99.90
19803;DHT22;66074;50.764;6.090;2024-01-25T06:19:50;9.10;99.90
19803;DHT22;66074;50.764;6.090;2024-01-25T06:22:16;9.10;99.90
19803;DHT22;66074;50.764;6.090;2024-01-25T06:24:42;9.10;99.90
19803;DHT22;66074;50.764;6.090;2024-01-25T06:27:09;9.20;99.90
19803;DHT22;66074;50.764;6.090;2024-01-25T06:29:35;9.20;99.90
19803;DHT22;66074;50.764;6.090;2024-01-25T06:32:00;9.10;99.90
19803;DHT22;66074;50.764;6.090;2024-01-25T06:34:26;9.10;99.90
19803;DHT22;66074;50.764;6.090;2024-01-25T06:36:52;9.10;99.90
19803;DHT22;66074;50.764;6.090;2024-01-25T06:39:17;9.10;99.90
19803;DHT22;66074;50.764;6.090;2024-01-25T06:41:43;9.00;99.90
19803;DHT22;66074;50.764;6.090;2024-01-25T06:44:08;9.10;99.90
19803;DHT22;66074;50.764;6.090;2024-01-25T06:46:35;9.00;99.90
19803;DHT22;66074;50.764;6.090;2024-01-25T06:49:00;9.00;99.90
19803;DHT22;66074;50.764;6.090;2024-01-25T06:51:26;9.00;99.90
19803;DHT22;66074;50.764;6.090;2024-01-25T06:53:51;8.90;99.90
19803;DHT22;66074;50.764;6.090;2024-01-25T06:56:17;8.90;99.90
19803;DHT22;66074;50.764;6.090;2024-01-25T06:58:43;8.90;99.90
19803;DHT22;66074;50.764;6.090;2024-01-25T07:01:08;8.90;99.90
19803;DHT22;66074;50.764;6.090;2024-01-25T07:03:35;8.90;99.90
19803;DHT22;66074;50.764;6.090;2024-01-25T07:06:00;8.90;99.90
19803;DHT22;66074;50.764;6.090;2024-01-25T07:08:26;8.90;99.90
19803;DHT22;66074;50.764;6.090;2024-01-25T07:10:52;8.90;99.90
19803;DHT22;66074;50.764;6.090;2024-01-25T07:13:17;8.90;99.90
19803;DHT22;66074;50.764;6.090;2024-01-25T07:15:43;8.90;99.90
19803;DHT22;66074;50.764;6.090;2024-01-25T07:18:08;8.90;99.90
19803;DHT22;66074;50.764;6.090;2024-01-25T07:20:34;9.00;99.90
19803;DHT22;66074;50.764;6.090;2024-01-25T07:23:00;9.10;99.90
19803;DHT22;66074;50.764;6.090;2024-01-25T07:25:26;9.10;99.90
19803;DHT22;66074;50.764;6.090;2024-01-25T07:27:52;9.10;99.90
19803;DHT22;66074;50.764;6.090;2024-01-25T07:30:17;9.20;99.90
19803;DHT22;66074;50.764;6.090;2024-01-25T07:32:43;9.20;99.90
19803;DHT22;66074;50.764;6.090;2024-01-25T07:35:09;9.20;99.90
19803;DHT22;66074;50.764;6.090;2024-01-25T07:37:38;9.20;99.90
19803;DHT22;66074;50.764;6.090;2024-01-25T07:40:04;9.30;99.90
19803;DHT22;66074;50.764;6.090;2024-01-25T07:42:30;9.30;99.90
19803;DHT22;66074;50.764;6.090;2024-01-25T07:44:55;9.30;99.90
19803;DHT22;66074;50.764;6.090;2024-01-25T07:47:21;9.30;99.90
19803;DHT22;66074;50.764;6.090;2024-01-25T07:49:47;9.30;99.90
19803;DHT22;66074;50.764;6.090;2024-01-25T07:52:13;9.40;99.90
19803;DHT22;66074;50.764;6.090;2024-01-25T07:54:39;9.40;99.90
19803;DHT22;66074;50.764;6.090;2024-01-25T07:57:04;9.40;99.90
19803;DHT22;66074;50.764;6.090;2024-01-25T07:59:30;9.40;99.90
19803;DHT22;66074;50.764;6.090;2024-01-25T08:01:56;9.40;99.90
19803;DHT22;66074;50.764;6.090;2024-01-25T08:04:21;9.40;99.90
19803;DHT22;66074;50.764;6.090;2024-01-25T08:06:47;9.40;99.90
19803;DHT22;66074;50.764;6.090;2024-01-25T08:09:13;9.30;99.90
19803;DHT22;66074;50.764;6.090;2024-01-25T08:11:39;9.40;99.90
19803;DHT22;66074;50.764;6.090;2024-01-25T08:14:04;9.40;99.90
19803;DHT22;66074;50.764;6.090;2024-01-25T08:16:30;9.40;99.90
19803;DHT22;66074;50.764;6.090;2024-01-25T08:18:56;9.40;99.90
19803;DHT22;66074;50.764;6.090;2024-01-25T08:21:21;9.40;99.90
19803;DHT22;66074;50.764;6.090;2024-01-25T08:23:47;9.40;99.90
19803;DHT22;66074;50.764;6.090;2024-01-25T08:26:13;9.40;99.90
19803;DHT22;66074;50.764;6.090;2024-01-25T08:28:42;9.40;99.90
19803;DHT22;66074;50.764;6.090;2024-01-25T08:31:10;9.40;99.90
19803;DHT22;66074;50.764;6.090;2024-01-25T08:33:36;9.40;99.90
19803;DHT22;66074;50.764;6.090;2024-01-25T08:36:01;9.40;99.90
19803;DHT22;66074;50.764;6.090;2024-01-25T08:38:27;9.50;99.90
19803;DHT22;66074;50.764;6.090;2024-01-25T08:40:53;9.60;99.90
19803;DHT22;66074;50.764;6.090;2024-01-25T08:43:18;9.60;99.90
19803;DHT22;66074;50.764;6.090;2024-01-25T08:45:44;9.50;99.90
19803;DHT22;66074;50.764;6.090;2024-01-25T08:48:10;9.60;99.90
19803;DHT22;66074;50.764;6.090;2024-01-25T08:50:36;9.60;99.90
19803;DHT22;66074;50.764;6.090;2024-01-25T08:53:02;9.60;99.90
19803;DHT22;66074;50.764;6.090;2024-01-25T08:55:27;9.60;99.90
19803;DHT22;66074;50.764;6.090;2024-01-25T08:57:53;9.70;99.90
19803;DHT22;66074;50.764;6.090;2024-01-25T09:00:19;9.70;99.90
19803;DHT22;66074;50.764;6.090;2024-01-25T09:02:44;9.70;99.90
19803;DHT22;66074;50.764;6.090;2024-01-25T09:05:11;9.70;99.90
19803;DHT22;66074;50.764;6.090;2024-01-25T09:07:37;9.70;99.90
19803;DHT22;66074;50.764;6.090;2024-01-25T09:10:03;9.70;99.90
19803;DHT22;66074;50.764;6.090;2024-01-25T09:12:30;9.70;99.90
19803;DHT22;66074;50.764;6.090;2024-01-25T09:14:55;9.70;99.90
19803;DHT22;66074;50.764;6.090;2024-01-25T09:17:21;9.70;99.90
19803;DHT22;66074;50.764;6.090;2024-01-25T09:19:50;9.70;99.90
19803;DHT22;66074;50.764;6.090;2024-01-25T09:22:19;9.80;99.90
19803;DHT22;66074;50.764;6.090;2024-01-25T09:24:46;9.70;99.90
19803;DHT22;66074;50.764;6.090;2024-01-25T09:27:12;9.70;99.90
19803;DHT22;66074;50.764;6.090;2024-01-25T09:29:41;9.70;99.90
19803;DHT22;66074;50.764;6.090;2024-01-25T09:32:07;9.70;99.90
19803;DHT22;66074;50.764;6.090;2024-01-25T09:34:34;9.70;99.90
19803;DHT22;66074;50.764;6.090;2024-01-25T09:37:00;9.70;99.90
19803;DHT22;66074;50.764;6.090;2024-01-25T09:39:26;9.70;99.90
19803;DHT22;66074;50.764;6.090;2024-01-25T09:41:51;9.70;99.90
19803;DHT22;66074;50.764;6.090;2024-01-25T09:44:18;9.70;99.90
19803;DHT22;66074;50.764;6.090;2024-01-25T09:46:45;9.70;99.90
19803;DHT22;66074;50.764;6.090;2024-01-25T09:49:11;9.70;99.90
19803;DHT22;66074;50.764;6.090;2024-01-25T09:51:39;9.70;99.90
19803;DHT22;66074;50.764;6.090;2024-01-25T09:54:05;9.70;99.90
19803;DHT22;66074;50.764;6.090;2024-01-25T09:56:32;9.70;99.90
19803;DHT22;66074;50.764;6.090;2024-01-25T09:58:58;9.90;99.90
19803;DHT22;66074;50.764;6.090;2024-01-25T10:01:24;9.70;99.90
19803;DHT22;66074;50.764;6.090;2024-01-25T10:03:50;9.80;99.90
19803;DHT22;66074;50.764;6.090;2024-01-25T10:06:16;9.90;99.90
19803;DHT22;66074;50.764;6.090;2024-01-25T10:08:42;9.90;99.90
19803;DHT22;66074;50.764;6.090;2024-01-25T10:11:08;9.90;99.90
19803;DHT22;66074;50.764;6.090;2024-01-25T10:13:45;10.00;99.90
19803;DHT22;66074;50.764;6.090;2024-01-25T10:16:12;10.00;99.90
19803;DHT22;66074;50.764;6.090;2024-01-25T10:18:39;10.10;99.90
19803;DHT22;66074;50.764;6.090;2024-01-25T10:21:05;10.10;99.90
19803;DHT22;66074;50.764;6.090;2024-01-25T10:23:31;10.20;99.90
19803;DHT22;66074;50.764;6.090;2024-01-25T10:25:58;10.30;99.90
19803;DHT22;66074;50.764;6.090;2024-01-25T10:28:24;10.30;99.80
19803;DHT22;66074;50.764;6.090;2024-01-25T10:30:50;10.30;99.90
19803;DHT22;66074;50.764;6.090;2024-01-25T10:33:16;10.30;99.50
19803;DHT22;66074;50.764;6.090;2024-01-25T10:35:42;10.30;99.60
19803;DHT22;66074;50.764;6.090;2024-01-25T10:38:11;10.30;99.60
19803;DHT22;66074;50.764;6.090;2024-01-25T10:40:38;10.40;99.90
19803;DHT22;66074;50.764;6.090;2024-01-25T10:43:05;10.40;99.80
19803;DHT22;66074;50.764;6.090;2024-01-25T10:45:30;10.40;99.60
19803;DHT22;66074;50.764;6.090;2024-01-25T10:47:56;10.50;99.40
19803;DHT22;66074;50.764;6.090;2024-01-25T10:50:22;10.60;99.60
19803;DHT22;66074;50.764;6.090;2024-01-25T10:52:50;10.60;99.30
19803;DHT22;66074;50.764;6.090;2024-01-25T10:55:16;10.70;99.50
19803;DHT22;66074;50.764;6.090;2024-01-25T10:57:44;10.70;99.50
19803;DHT22;66074;50.764;6.090;2024-01-25T11:00:12;10.70;99.00
19803;DHT22;66074;50.764;6.090;2024-01-25T11:02:39;10.80;99.30
19803;DHT22;66074;50.764;6.090;2024-01-25T11:05:15;10.80;99.20
19803;DHT22;66074;50.764;6.090;2024-01-25T11:07:48;10.90;99.10
19803;DHT22;66074;50.764;6.090;2024-01-25T11:10:18;10.90;99.10
19803;DHT22;66074;50.764;6.090;2024-01-25T11:13:13;10.90;98.40
19803;DHT22;66074;50.764;6.090;2024-01-25T11:15:39;10.90;99.00
19803;DHT22;66074;50.764;6.090;2024-01-25T11:18:08;11.00;98.80
19803;DHT22;66074;50.764;6.090;2024-01-25T11:20:35;11.00;98.50
19803;DHT22;66074;50.764;6.090;2024-01-25T11:23:07;11.00;98.70
19803;DHT22;66074;50.764;6.090;2024-01-25T11:25:36;11.00;98.80
19803;DHT22;66074;50.764;6.090;2024-01-25T11:28:03;11.10;98.70
19803;DHT22;66074;50.764;6.090;2024-01-25T11:30:31;11.10;98.60
19803;DHT22;66074;50.764;6.090;2024-01-25T11:32:57;11.10;98.60
19803;DHT22;66074;50.764;6.090;2024-01-25T11:35:23;11.20;98.60
19803;DHT22;66074;50.764;6.090;2024-01-25T11:37:50;11.20;98.80
19803;DHT22;66074;50.764;6.090;2024-01-25T11:40:19;11.20;98.40
19803;DHT22;66074;50.764;6.090;2024-01-25T11:42:49;11.30;98.10
19803;DHT22;66074;50.764;6.090;2024-01-25T11:45:15;11.30;98.10
19803;DHT22;66074;50.764;6.090;2024-01-25T11:47:42;11.40;97.80
19803;DHT22;66074;50.764;6.090;2024-01-25T11:50:10;11.40;98.20
19803;DHT22;66074;50.764;6.090;2024-01-25T11:52:36;11.40;97.60
19803;DHT22;66074;50.764;6.090;2024-01-25T11:55:06;11.40;98.00
19803;DHT22;66074;50.764;6.090;2024-01-25T11:57:35;11.40;97.70
19803;DHT22;66074;50.764;6.090;2024-01-25T12:00:02;11.50;97.90
19803;DHT22;66074;50.764;6.090;2024-01-25T12:02:28;11.50;97.60
19803;DHT22;66074;50.764;6.090;2024-01-25T12:04:56;11.50;97.70
19803;DHT22;66074;50.764;6.090;2024-01-25T12:07:22;11.50;97.70
19803;DHT22;66074;50.764;6.090;2024-01-25T12:10:03;11.50;97.40
19803;DHT22;66074;50.764;6.090;2024-01-25T12:12:29;11.50;97.10
19803;DHT22;66074;50.764;6.090;2024-01-25T12:15:03;11.60;97.70
19803;DHT22;66074;50.764;6.090;2024-01-25T12:17:30;11.60;97.70
19803;DHT22;66074;50.764;6.090;2024-01-25T12:19:59;11.60;97.50
19803;DHT22;66074;50.764;6.090;2024-01-25T12:22:27;11.70;97.80
19803;DHT22;66074;50.764;6.090;2024-01-25T12:24:54;11.70;97.50
19803;DHT22;66074;50.764;6.090;2024-01-25T12:27:21;11.70;97.60
19803;DHT22;66074;50.764;6.090;2024-01-25T12:29:48;11.80;97.70
19803;DHT22;66074;50.764;6.090;2024-01-25T12:32:13;11.90;97.40
19803;DHT22;66074;50.764;6.090;2024-01-25T12:34:39;11.90;97.40
19803;DHT22;66074;50.764;6.090;2024-01-25T12:37:07;11.90;97.20
19803;DHT22;66074;50.764;6.090;2024-01-25T12:39:32;12.00;97.30
19803;DHT22;66074;50.764;6.090;2024-01-25T12:41:58;12.00;97.20
19803;DHT22;66074;50.764;6.090;2024-01-25T12:44:24;12.10;96.40
19803;DHT22;66074;50.764;6.090;2024-01-25T12:46:49;12.10;96.90
19803;DHT22;66074;50.764;6.090;2024-01-25T12:49:15;12.10;96.50
19803;DHT22;66074;50.764;6.090;2024-01-25T12:51:41;12.10;96.60
19803;DHT22;66074;50.764;6.090;2024-01-25T12:54:07;12.20;96.60
19803;DHT22;66074;50.764;6.090;2024-01-25T12:56:33;12.20;96.90
19803;DHT22;66074;50.764;6.090;2024-01-25T12:58:58;12.20;96.60
19803;DHT22;66074;50.764;6.090;2024-01-25T13:01:24;12.30;97.00
19803;DHT22;66074;50.764;6.090;2024-01-25T13:03:50;12.30;96.50
19803;DHT22;66074;50.764;6.090;2024-01-25T13:06:15;12.30;96.70
19803;DHT22;66074;50.764;6.090;2024-01-25T13:08:41;12.20;96.40
19803;DHT22;66074;50.764;6.090;2024-01-25T13:11:07;12.20;96.80
19803;DHT22;66074;50.764;6.090;2024-01-25T13:13:32;12.10;96.60
19803;DHT22;66074;50.764;6.090;2024-01-25T13:15:58;12.20;96.50
19803;DHT22;66074;50.764;6.090;2024-01-25T13:18:23;12.10;96.20
19803;DHT22;66074;50.764;6.090;2024-01-25T13:20:49;12.10;96.50
19803;DHT22;66074;50.764;6.090;2024-01-25T13:23:15;12.10;95.90
19803;DHT22;66074;50.764;6.090;2024-01-25T13:25:40;12.10;96.30
19803;DHT22;66074;50.764;6.090;2024-01-25T13:28:06;12.10;96.10
19803;DHT22;66074;50.764;6.090;2024-01-25T13:30:31;12.00;96.20
19803;DHT22;66074;50.764;6.090;2024-01-25T13:32:57;12.00;96.30
19803;DHT22;66074;50.764;6.090;2024-01-25T13:35:23;12.10;96.30
19803;DHT22;66074;50.764;6.090;2024-01-25T13:37:48;12.00;96.20
19803;DHT22;66074;50.764;6.090;2024-01-25T13:40:14;12.00;96.20
19803;DHT22;66074;50.764;6.090;2024-01-25T13:42:39;12.10;96.40
19803;DHT22;66074;50.764;6.090;2024-01-25T13:45:06;12.00;96.30
19803;DHT22;66074;50.764;6.090;2024-01-25T13:47:32;12.10;96.40
19803;DHT22;66074;50.764;6.090;2024-01-25T13:49:58;12.10;96.00
19803;DHT22;66074;50.764;6.090;2024-01-25T13:52:23;12.00;96.40
19803;DHT22;66074;50.764;6.090;2024-01-25T13:54:49;12.10;96.40
19803;DHT22;66074;50.764;6.090;2024-01-25T13:57:15;12.10;96.50
19803;DHT22;66074;50.764;6.090;2024-01-25T13:59:41;12.10;96.50
19803;DHT22;66074;50.764;6.090;2024-01-25T14:02:07;12.10;96.40
19803;DHT22;66074;50.764;6.090;2024-01-25T14:04:32;12.10;96.60
19803;DHT22;66074;50.764;6.090;2024-01-25T14:06:58;12.00;96.80
19803;DHT22;66074;50.764;6.090;2024-01-25T14:09:24;12.00;97.00
19803;DHT22;66074;50.764;6.090;2024-01-25T14:11:49;12.00;97.20
19803;DHT22;66074;50.764;6.090;2024-01-25T14:14:15;12.00;97.30
19803;DHT22;66074;50.764;6.090;2024-01-25T14:16:40;11.90;97.30
19803;DHT22;66074;50.764;6.090;2024-01-25T14:19:06;11.90;97.50
19803;DHT22;66074;50.764;6.090;2024-01-25T14:21:33;11.90;97.60
19803;DHT22;66074;50.764;6.090;2024-01-25T14:23:58;11.90;97.60
19803;DHT22;66074;50.764;6.090;2024-01-25T14:26:24;11.80;98.20
19803;DHT22;66074;50.764;6.090;2024-01-25T14:28:50;11.80;98.20
19803;DHT22;66074;50.764;6.090;2024-01-25T14:31:15;11.80;98.40
19803;DHT22;66074;50.764;6.090;2024-01-25T14:33:41;11.80;98.20
19803;DHT22;66074;50.764;6.090;2024-01-25T14:36:07;11.80;98.40
19803;DHT22;66074;50.764;6.090;2024-01-25T14:38:32;11.80;99.10
19803;DHT22;66074;50.764;6.090;2024-01-25T14:40:59;11.80;98.70
19803;DHT22;66074;50.764;6.090;2024-01-25T14:43:25;11.80;98.90
19803;DHT22;66074;50.764;6.090;2024-01-25T14:45:51;11.80;99.20
19803;DHT22;66074;50.764;6.090;2024-01-25T14:48:17;11.80;98.80
19803;DHT22;66074;50.764;6.090;2024-01-25T14:50:43;11.80;98.80
19803;DHT22;66074;50.764;6.090;2024-01-25T14:53:08;11.80;98.90
19803;DHT22;66074;50.764;6.090;2024-01-25T14:55:34;11.80;98.90
19803;DHT22;66074;50.764;6.090;2024-01-25T14:58:00;11.80;98.80
19803;DHT22;66074;50.764;6.090;2024-01-25T15:00:25;11.80;98.80
19803;DHT22;66074;50.764;6.090;2024-01-25T15:02:53;11.80;98.90
19803;DHT22;66074;50.764;6.090;2024-01-25T15:05:19;11.70;99.40
19803;DHT22;66074;50.764;6.090;2024-01-25T15:07:45;11.70;99.20
19803;DHT22;66074;50.764;6.090;2024-01-25T15:10:10;11.80;99.10
19803;DHT22;66074;50.764;6.090;2024-01-25T15:12:37;11.80;99.10
19803;DHT22;66074;50.764;6.090;2024-01-25T15:15:03;11.70;99.20
19803;DHT22;66074;50.764;6.090;2024-01-25T15:17:28;11.80;99.30
19803;DHT22;66074;50.764;6.090;2024-01-25T15:19:54;11.70;99.60
19803;DHT22;66074;50.764;6.090;2024-01-25T15:22:19;11.70;99.90
19803;DHT22;66074;50.764;6.090;2024-01-25T15:24:47;11.70;99.90
19803;DHT22;66074;50.764;6.090;2024-01-25T15:27:13;11.70;99.90
19803;DHT22;66074;50.764;6.090;2024-01-25T15:29:39;11.70;99.90